Time;durP1;ratioP1;P1;durP2;ratioP2;P2;SDS_P1;SDS_P2;PMS_P1;PMS_P2;Temp;Humidity;BMP_temperature;BMP_pressure;BME280_temperature;BME280_humidity;BME280_pressure;Samples;Min_cycle;Max_cycle;Signal;HPM_P1;HPM_P2
2021/12/23 00:00:39;;;;;;;42.33;19.43;;;-2.00;99.90;;;;;;5080648;28;20522;-77
2021/12/23 00:03:05;;;;;;;42.90;20.57;;;-2.00;99.90;;;;;;5082797;28;20215;-79
2021/12/23 00:05:31;;;;;;;36.97;19.27;;;-2.10;99.90;;;;;;5087293;28;20659;-78
2021/12/23 00:07:56;;;;;;;40.97;20.67;;;-2.00;99.90;;;;;;5079285;28;20199;-78
2021/12/23 00:10:22;;;;;;;41.40;20.20;;;-2.00;99.90;;;;;;5088719;28;20186;-78
2021/12/23 00:12:48;;;;;;;40.37;20.27;;;-1.90;99.90;;;;;;5076428;28;20172;-78
2021/12/23 00:16:01;;;;;;;44.67;20.60;;;-1.90;99.90;;;;;;5077308;28;20638;-80
2021/12/23 00:18:44;;;;;;;37.93;20.07;;;-1.80;99.90;;;;;;5079530;28;20203;-79
2021/12/23 00:24:00;;;;;;;43.07;19.17;;;-2.10;99.90;;;;;;5093570;28;20186;-79
2021/12/23 00:26:26;;;;;;;44.60;21.10;;;-2.20;99.90;;;;;;5084959;28;20555;-79
2021/12/23 00:28:53;;;;;;;40.30;20.07;;;-2.30;99.90;;;;;;5083639;28;20307;-79
2021/12/23 00:31:34;;;;;;;40.40;19.97;;;-2.30;99.90;;;;;;5082367;28;20180;-79
2021/12/23 00:33:59;;;;;;;41.50;20.60;;;-2.40;99.90;;;;;;5077032;28;20588;-78
2021/12/23 00:36:25;;;;;;;45.23;21.63;;;-2.30;99.90;;;;;;5086895;28;20256;-79
2021/12/23 00:38:54;;;;;;;46.80;21.43;;;-2.30;99.90;;;;;;5082587;28;20192;-79
2021/12/23 00:41:22;;;;;;;42.83;20.67;;;-2.30;99.90;;;;;;5081400;28;20216;-79
2021/12/23 00:43:48;;;;;;;44.43;21.00;;;-2.40;99.90;;;;;;5090420;28;20180;-79
2021/12/23 00:46:14;;;;;;;42.50;18.33;;;-2.50;99.90;;;;;;5089870;28;20187;-79
2021/12/23 00:48:41;;;;;;;43.87;21.10;;;-2.50;99.90;;;;;;5079849;28;20791;-78
2021/12/23 00:51:07;;;;;;;42.17;19.60;;;-2.40;99.90;;;;;;5080810;28;20223;-79
2021/12/23 00:53:39;;;;;;;38.83;19.90;;;-2.30;99.90;;;;;;5081947;28;20263;-79
2021/12/23 00:56:06;;;;;;;43.00;20.23;;;-2.30;99.90;;;;;;5078452;28;20181;-78
2021/12/23 00:58:32;;;;;;;39.80;19.63;;;-2.40;99.90;;;;;;5082398;28;20205;-79
2021/12/23 01:01:00;;;;;;;37.27;20.47;;;-2.40;99.90;;;;;;5075687;28;20636;-78
2021/12/23 01:03:26;;;;;;;37.37;20.57;;;-2.30;99.90;;;;;;5077348;28;20180;-79
2021/12/23 01:05:51;;;;;;;38.73;20.17;;;-2.30;99.90;;;;;;5081917;28;20181;-78
2021/12/23 01:08:19;;;;;;;35.87;20.37;;;-2.30;99.90;;;;;;5075745;28;20209;-78
2021/12/23 01:10:56;;;;;;;38.80;20.63;;;-2.50;99.90;;;;;;5080741;28;20177;-79
2021/12/23 01:13:26;;;;;;;38.10;18.90;;;-2.50;99.90;;;;;;5077870;28;20188;-78
2021/12/23 01:16:08;;;;;;;40.03;19.60;;;-2.60;99.90;;;;;;5080771;28;20185;-78
2021/12/23 01:18:43;;;;;;;37.60;19.97;;;-2.60;99.90;;;;;;5080795;28;20261;-79
2021/12/23 01:21:17;;;;;;;39.57;19.33;;;-2.60;99.90;;;;;;5081402;28;20175;-79
2021/12/23 01:23:50;;;;;;;38.27;19.50;;;-2.50;99.90;;;;;;5080094;28;20168;-78
2021/12/23 01:26:19;;;;;;;33.53;18.43;;;-2.40;99.90;;;;;;5080976;28;20628;-79
2021/12/23 01:28:47;;;;;;;34.17;18.23;;;-2.20;99.90;;;;;;5084542;28;20212;-78
2021/12/23 01:31:12;;;;;;;33.67;18.43;;;-2.20;99.90;;;;;;5077953;28;20537;-79
2021/12/23 01:33:54;;;;;;;33.90;18.80;;;-2.10;99.90;;;;;;5078333;28;20164;-79
2021/12/23 01:36:20;;;;;;;37.50;18.37;;;-2.00;99.90;;;;;;5076757;28;20169;-78
2021/12/23 01:38:46;;;;;;;32.43;17.77;;;-2.00;99.90;;;;;;5087557;28;20660;-79
2021/12/23 01:41:12;;;;;;;34.70;17.83;;;-2.10;99.90;;;;;;5082525;28;20180;-78
2021/12/23 01:43:38;;;;;;;36.43;18.10;;;-2.00;99.90;;;;;;5073827;28;20198;-79
2021/12/23 01:46:04;;;;;;;34.93;18.63;;;-2.00;99.90;;;;;;5091421;28;20619;-78
2021/12/23 01:48:30;;;;;;;34.87;17.67;;;-1.90;99.90;;;;;;5083573;28;20216;-79
2021/12/23 01:51:14;;;;;;;35.80;18.07;;;-1.80;99.90;;;;;;5083269;28;20203;-78
2021/12/23 01:53:40;;;;;;;33.87;17.37;;;-1.70;99.90;;;;;;5078674;28;20176;-79
2021/12/23 01:56:07;;;;;;;34.23;17.83;;;-1.70;99.90;;;;;;5075770;28;20180;-79
2021/12/23 01:58:38;;;;;;;34.77;17.43;;;-1.80;99.90;;;;;;5081094;28;20215;-78
2021/12/23 02:01:05;;;;;;;34.30;18.03;;;-1.90;99.90;;;;;;5069742;28;20181;-79
2021/12/23 02:03:31;;;;;;;33.80;17.33;;;-2.00;99.90;;;;;;5084073;28;20632;-79
2021/12/23 02:05:57;;;;;;;36.93;18.67;;;-2.10;99.90;;;;;;5094049;28;20176;-78
2021/12/23 02:08:24;;;;;;;35.60;17.97;;;-2.10;99.90;;;;;;5080484;28;20213;-79
2021/12/23 02:10:52;;;;;;;33.50;17.87;;;-2.10;99.90;;;;;;5092011;28;20162;-79
2021/12/23 02:13:17;;;;;;;33.87;17.80;;;-2.10;99.90;;;;;;5083269;28;20631;-80
2021/12/23 02:15:43;;;;;;;32.63;17.37;;;-2.10;99.90;;;;;;5083630;28;20172;-78
2021/12/23 02:18:08;;;;;;;32.63;18.80;;;-2.10;99.90;;;;;;5086231;28;20208;-79
2021/12/23 02:20:35;;;;;;;32.40;17.90;;;-2.00;99.90;;;;;;5090127;28;20522;-79
2021/12/23 02:23:03;;;;;;;34.30;18.17;;;-2.00;99.90;;;;;;5088853;28;20185;-80
2021/12/23 02:25:29;;;;;;;32.57;16.13;;;-1.70;99.90;;;;;;5081223;28;20192;-79
2021/12/23 02:27:55;;;;;;;32.20;18.43;;;-1.70;99.90;;;;;;5084946;28;20202;-77
2021/12/23 02:30:26;;;;;;;33.37;17.47;;;-1.60;99.90;;;;;;5074432;28;20205;-78
2021/12/23 02:32:53;;;;;;;30.37;16.73;;;-1.60;99.90;;;;;;5078351;28;20184;-78
2021/12/23 02:35:21;;;;;;;31.43;16.73;;;-1.60;99.90;;;;;;5077542;28;20583;-77
2021/12/23 02:37:47;;;;;;;33.27;17.40;;;-1.80;99.90;;;;;;5080661;28;20186;-78
2021/12/23 02:40:24;;;;;;;33.67;17.23;;;-1.90;99.90;;;;;;5093881;28;20254;-78
2021/12/23 02:42:49;;;;;;;31.60;16.53;;;-2.00;99.90;;;;;;5081274;28;20185;-78
2021/12/23 02:45:15;;;;;;;31.10;17.07;;;-2.10;99.90;;;;;;5079526;28;20178;-77
2021/12/23 02:47:41;;;;;;;31.60;16.80;;;-2.10;99.90;;;;;;5087867;28;20203;-76
2021/12/23 02:50:08;;;;;;;29.00;15.93;;;-2.20;99.90;;;;;;5077234;28;20203;-77
2021/12/23 02:52:36;;;;;;;32.30;17.50;;;-2.10;99.90;;;;;;5083166;28;20943;-77
2021/12/23 02:55:04;;;;;;;32.70;16.57;;;-1.80;99.90;;;;;;5077910;28;20172;-78
2021/12/23 02:57:31;;;;;;;32.90;16.30;;;-1.70;99.90;;;;;;5079154;28;20223;-78
2021/12/23 02:59:57;;;;;;;33.37;16.77;;;-1.60;99.90;;;;;;5079872;28;20196;-78
2021/12/23 03:02:23;;;;;;;30.43;17.10;;;-1.50;99.90;;;;;;5089570;28;20190;-78
2021/12/23 03:04:48;;;;;;;30.97;17.10;;;-1.40;99.90;;;;;;5086198;28;20266;-77
2021/12/23 03:07:15;;;;;;;31.00;16.10;;;-1.40;99.90;;;;;;5082087;28;20201;-78
2021/12/23 03:09:44;;;;;;;31.13;16.07;;;-1.40;99.90;;;;;;5085209;28;20217;-77
2021/12/23 03:12:09;;;;;;;27.90;16.00;;;-1.30;99.90;;;;;;5076666;28;20565;-77
2021/12/23 03:14:35;;;;;;;30.33;16.10;;;-1.30;99.90;;;;;;5083107;28;20227;-78
2021/12/23 03:17:01;;;;;;;34.33;16.90;;;-1.30;99.90;;;;;;5088918;28;20196;-79
2021/12/23 03:19:27;;;;;;;29.87;16.87;;;-1.40;99.90;;;;;;5078316;28;20273;-78
2021/12/23 03:21:52;;;;;;;32.37;16.63;;;-1.40;99.90;;;;;;5080546;28;20183;-80
2021/12/23 03:24:19;;;;;;;27.10;16.07;;;-1.40;99.90;;;;;;5081324;28;20187;-79
2021/12/23 03:27:20;;;;;;;27.77;15.27;;;-1.60;99.90;;;;;;5087009;28;20184;-78
2021/12/23 03:29:51;;;;;;;30.17;16.70;;;-1.60;99.90;;;;;;5070874;28;20200;-80
2021/12/23 03:32:17;;;;;;;28.77;16.83;;;-1.60;99.90;;;;;;5092006;28;20179;-78
2021/12/23 03:34:43;;;;;;;29.93;16.37;;;-1.60;99.90;;;;;;5078899;28;20278;-77
2021/12/23 03:37:09;;;;;;;28.53;15.87;;;-1.80;99.90;;;;;;5080955;28;20213;-79
2021/12/23 03:39:35;;;;;;;31.87;16.13;;;-1.80;99.90;;;;;;5079569;28;20223;-79
2021/12/23 03:42:00;;;;;;;32.67;17.60;;;-1.70;99.90;;;;;;5077444;28;20176;-78
2021/12/23 03:44:40;;;;;;;29.00;16.27;;;-1.60;99.90;;;;;;5086752;28;20180;-79
2021/12/23 03:47:06;;;;;;;29.30;16.33;;;-1.40;99.90;;;;;;5081694;28;20260;-78
2021/12/23 03:49:32;;;;;;;27.03;15.23;;;-1.30;99.90;;;;;;5084272;28;20248;-78
2021/12/23 03:51:58;;;;;;;29.17;16.53;;;-1.30;99.90;;;;;;5083884;28;20176;-78
2021/12/23 03:54:23;;;;;;;28.00;16.70;;;-1.40;99.90;;;;;;5083860;28;20172;-78
2021/12/23 03:56:49;;;;;;;29.77;16.67;;;-1.30;99.90;;;;;;5088578;28;20206;-78
2021/12/23 03:59:15;;;;;;;32.07;17.80;;;-1.40;99.90;;;;;;5086305;28;20587;-78
2021/12/23 04:01:41;;;;;;;27.67;15.63;;;-1.40;99.90;;;;;;5090176;28;20195;-79
2021/12/23 04:04:08;;;;;;;27.47;16.23;;;-1.40;99.90;;;;;;5082874;28;20175;-78
2021/12/23 04:06:34;;;;;;;32.00;16.77;;;-1.40;99.90;;;;;;5084267;28;20574;-79
2021/12/23 04:09:00;;;;;;;28.90;16.83;;;-1.50;99.90;;;;;;5083042;28;20678;-79
2021/12/23 04:11:26;;;;;;;32.30;16.47;;;-1.50;99.90;;;;;;5078749;28;20177;-79
2021/12/23 04:13:53;;;;;;;29.07;16.33;;;-1.40;99.90;;;;;;5074612;28;20183;-79
2021/12/23 04:16:38;;;;;;;34.47;16.13;;;-1.50;99.90;;;;;;5081834;28;20184;-78
2021/12/23 04:19:07;;;;;;;28.40;15.90;;;-1.40;99.90;;;;;;5079538;28;20201;-79
2021/12/23 04:21:33;;;;;;;29.90;16.00;;;-1.50;99.90;;;;;;5086755;28;20183;-78
2021/12/23 04:23:59;;;;;;;29.57;16.10;;;-1.60;99.90;;;;;;5092906;28;20656;-79
2021/12/23 04:26:25;;;;;;;30.60;15.90;;;-1.50;99.90;;;;;;5086962;28;20263;-78
2021/12/23 04:28:51;;;;;;;29.93;16.43;;;-1.50;99.90;;;;;;5083815;28;20203;-78
2021/12/23 04:31:20;;;;;;;28.73;15.13;;;-1.40;99.90;;;;;;5083184;28;20190;-79
2021/12/23 04:33:48;;;;;;;28.60;16.10;;;-1.40;99.90;;;;;;5077747;28;20220;-78
2021/12/23 04:36:14;;;;;;;30.10;16.67;;;-1.50;99.90;;;;;;5086567;28;20176;-79
2021/12/23 04:38:41;;;;;;;29.97;16.97;;;-1.50;99.90;;;;;;5099286;28;20201;-77
2021/12/23 04:41:07;;;;;;;31.77;15.90;;;-1.50;99.90;;;;;;5101459;28;20164;-77
2021/12/23 04:43:34;;;;;;;29.10;15.87;;;-1.50;99.90;;;;;;5114340;28;20181;-78
2021/12/23 04:45:59;;;;;;;31.17;16.30;;;-1.50;99.90;;;;;;5104680;28;20178;-79
2021/12/23 04:48:26;;;;;;;31.83;15.67;;;-1.40;99.90;;;;;;5105090;28;20258;-78
2021/12/23 04:50:51;;;;;;;28.93;15.70;;;-1.30;99.90;;;;;;5100171;28;20174;-78
2021/12/23 04:53:17;;;;;;;27.27;15.03;;;-1.20;99.90;;;;;;5100090;28;20179;-78
2021/12/23 04:55:47;;;;;;;25.80;15.40;;;-1.20;99.90;;;;;;5102282;28;20199;-77
2021/12/23 04:58:13;;;;;;;26.10;15.93;;;-1.20;99.90;;;;;;5101477;28;20176;-78
2021/12/23 05:00:39;;;;;;;26.40;15.70;;;-1.30;99.90;;;;;;5100024;28;20213;-77
2021/12/23 05:03:04;;;;;;;31.33;15.67;;;-1.30;99.90;;;;;;5100171;28;20174;-77
2021/12/23 05:05:30;;;;;;;27.90;15.60;;;-1.10;99.90;;;;;;5107380;28;20248;-77
2021/12/23 05:07:57;;;;;;;30.67;15.27;;;-1.20;99.90;;;;;;5095574;28;20209;-79
2021/12/23 05:10:25;;;;;;;25.53;15.33;;;-1.40;99.90;;;;;;5086676;28;20173;-78
2021/12/23 05:12:50;;;;;;;25.23;15.70;;;-1.30;99.90;;;;;;5087466;28;20171;-78
2021/12/23 05:15:19;;;;;;;25.97;15.43;;;-1.40;99.90;;;;;;5077584;28;20182;-79
2021/12/23 05:17:45;;;;;;;27.33;16.20;;;-1.40;99.90;;;;;;5081730;28;20192;-79
2021/12/23 05:20:14;;;;;;;29.07;15.40;;;-1.50;99.90;;;;;;5085953;28;20230;-79
2021/12/23 05:22:39;;;;;;;28.33;14.93;;;-1.60;99.90;;;;;;5076855;28;20180;-79
2021/12/23 05:25:06;;;;;;;28.93;16.07;;;-1.60;99.90;;;;;;5073459;28;20181;-78
2021/12/23 05:27:32;;;;;;;26.73;15.30;;;-1.60;99.90;;;;;;5072239;28;20204;-78
2021/12/23 05:29:58;;;;;;;25.73;15.40;;;-1.60;99.90;;;;;;5069608;28;20673;-80
2021/12/23 05:32:24;;;;;;;26.90;15.73;;;-1.80;99.90;;;;;;5078911;28;20181;-79
2021/12/23 05:34:49;;;;;;;27.47;15.97;;;-1.70;99.90;;;;;;5077814;28;20531;-78
2021/12/23 05:37:16;;;;;;;26.07;14.57;;;-1.70;99.90;;;;;;5076788;28;20265;-79
2021/12/23 05:39:41;;;;;;;28.07;14.83;;;-1.70;99.90;;;;;;5078554;28;20200;-78
2021/12/23 05:42:07;;;;;;;29.93;17.03;;;-1.70;99.90;;;;;;5076956;28;20187;-79
2021/12/23 05:44:33;;;;;;;30.13;17.27;;;-1.70;99.90;;;;;;5084223;28;20187;-78
2021/12/23 05:47:00;;;;;;;27.70;16.53;;;-1.70;99.90;;;;;;5089671;28;20206;-77
2021/12/23 05:49:27;;;;;;;33.63;16.63;;;-1.70;99.90;;;;;;5080425;28;20576;-77
2021/12/23 05:51:52;;;;;;;25.63;15.23;;;-1.70;99.90;;;;;;5074665;28;20255;-78
2021/12/23 05:54:18;;;;;;;24.30;14.93;;;-1.70;99.90;;;;;;5092480;28;20185;-78
2021/12/23 05:56:44;;;;;;;27.83;15.87;;;-1.60;99.90;;;;;;5075617;28;20172;-78
2021/12/23 05:59:10;;;;;;;29.10;16.80;;;-1.70;99.90;;;;;;5087082;28;20288;-78
2021/12/23 06:01:35;;;;;;;28.50;16.37;;;-1.60;99.90;;;;;;5088589;28;20201;-78
2021/12/23 06:04:01;;;;;;;30.10;16.90;;;-1.60;99.90;;;;;;5081627;28;20179;-78
2021/12/23 06:06:27;;;;;;;26.50;15.23;;;-1.50;99.90;;;;;;5076951;28;20172;-77
2021/12/23 06:08:53;;;;;;;27.93;15.87;;;-1.60;99.90;;;;;;5086080;28;20204;-78
2021/12/23 06:11:18;;;;;;;28.40;15.77;;;-1.50;99.90;;;;;;5084300;28;20509;-79
2021/12/23 06:13:44;;;;;;;27.83;15.77;;;-1.70;99.90;;;;;;5077512;28;20269;-78
2021/12/23 06:16:10;;;;;;;26.13;15.77;;;-1.60;99.90;;;;;;5076492;28;20172;-79
2021/12/23 06:18:36;;;;;;;28.37;16.63;;;-1.60;99.90;;;;;;5081277;28;20209;-79
2021/12/23 06:21:05;;;;;;;26.43;15.60;;;-1.60;99.90;;;;;;5082298;28;20185;-79
2021/12/23 06:23:31;;;;;;;25.43;16.57;;;-1.70;99.90;;;;;;5074589;28;20568;-78
2021/12/23 06:25:57;;;;;;;25.47;16.17;;;-1.60;99.90;;;;;;5074671;28;20180;-78
2021/12/23 06:28:23;;;;;;;28.57;17.17;;;-1.60;99.90;;;;;;5074180;28;20593;-77
2021/12/23 06:30:48;;;;;;;29.63;16.97;;;-1.60;99.90;;;;;;5075021;28;20254;-79
2021/12/23 06:33:14;;;;;;;31.07;17.73;;;-1.60;99.90;;;;;;5084294;28;20259;-78
2021/12/23 06:35:40;;;;;;;29.77;17.90;;;-1.60;99.90;;;;;;5077812;28;20170;-78
2021/12/23 06:38:08;;;;;;;30.73;18.27;;;-1.50;99.90;;;;;;5074730;28;20187;-79
2021/12/23 06:40:34;;;;;;;29.53;16.27;;;-1.30;99.90;;;;;;5082292;28;20673;-78
2021/12/23 06:43:00;;;;;;;32.10;18.53;;;-1.40;99.90;;;;;;5081924;28;20178;-80
2021/12/23 06:45:27;;;;;;;29.83;17.30;;;-1.40;99.90;;;;;;5077149;28;20666;-79
2021/12/23 06:47:53;;;;;;;32.03;16.60;;;-1.40;99.90;;;;;;5080121;28;20204;-79
2021/12/23 06:50:20;;;;;;;34.07;18.00;;;-1.30;99.90;;;;;;5076446;28;20196;-79
2021/12/23 06:52:46;;;;;;;30.43;17.10;;;-1.20;99.90;;;;;;5080484;28;20248;-79
2021/12/23 06:55:13;;;;;;;28.53;16.67;;;-1.30;99.90;;;;;;5079560;28;20214;-78
2021/12/23 06:57:39;;;;;;;25.70;16.10;;;-1.30;99.90;;;;;;5080951;28;20188;-78
2021/12/23 07:00:09;;;;;;;28.67;16.50;;;-1.40;99.90;;;;;;5077877;28;20671;-78
2021/12/23 07:02:38;;;;;;;28.57;16.63;;;-1.50;99.90;;;;;;5080381;28;20187;-78
2021/12/23 07:05:04;;;;;;;31.03;16.93;;;-1.60;99.90;;;;;;5083705;28;20184;-78
2021/12/23 07:07:40;;;;;;;29.83;17.83;;;-1.70;99.90;;;;;;5078131;28;20188;-78
2021/12/23 07:10:06;;;;;;;31.87;17.10;;;-1.80;99.90;;;;;;5079024;28;20195;-78
2021/12/23 07:12:32;;;;;;;31.13;17.90;;;-1.80;99.90;;;;;;5077477;28;20177;-77
2021/12/23 07:14:58;;;;;;;33.50;17.70;;;-1.80;99.90;;;;;;5078741;28;20185;-78
2021/12/23 07:17:28;;;;;;;31.20;17.67;;;-1.90;99.90;;;;;;5081816;28;20699;-78
2021/12/23 07:19:54;;;;;;;28.17;16.73;;;-1.90;99.90;;;;;;5076489;28;20200;-78
2021/12/23 07:22:19;;;;;;;29.87;16.03;;;-1.90;99.90;;;;;;5082184;28;20186;-79
2021/12/23 07:24:45;;;;;;;30.67;17.23;;;-1.80;99.90;;;;;;5085881;28;20174;-78
2021/12/23 07:27:11;;;;;;;28.97;17.03;;;-1.70;99.90;;;;;;5094158;28;20744;-78
2021/12/23 07:29:48;;;;;;;29.57;16.67;;;-1.70;99.90;;;;;;5066027;28;20249;-78
2021/12/23 07:32:14;;;;;;;28.87;17.20;;;-1.40;99.90;;;;;;5082190;28;20197;-78
2021/12/23 07:34:42;;;;;;;27.23;16.53;;;-1.40;99.90;;;;;;5079142;28;20189;-78
2021/12/23 07:37:11;;;;;;;31.40;17.17;;;-1.30;99.90;;;;;;5079955;28;20221;-79
2021/12/23 07:39:38;;;;;;;28.53;17.40;;;-1.30;99.90;;;;;;5088724;28;20708;-78
2021/12/23 07:42:06;;;;;;;25.37;15.53;;;-1.30;99.90;;;;;;5080967;28;20187;-78
2021/12/23 07:44:35;;;;;;;27.47;17.13;;;-1.20;99.90;;;;;;5079427;28;20193;-78
2021/12/23 07:47:01;;;;;;;27.23;16.60;;;-1.10;99.90;;;;;;5090422;28;20201;-78
2021/12/23 07:49:27;;;;;;;28.17;16.50;;;-1.20;99.90;;;;;;5082986;28;20215;-78
2021/12/23 07:52:02;;;;;;;29.33;17.67;;;-1.10;99.90;;;;;;5092734;28;20193;-77
2021/12/23 07:54:28;;;;;;;25.87;16.53;;;-1.00;99.90;;;;;;5071259;28;20204;-78
2021/12/23 07:56:54;;;;;;;27.63;16.23;;;-1.00;99.90;;;;;;5079047;28;20173;-78
2021/12/23 07:59:20;;;;;;;26.77;15.33;;;-0.90;99.90;;;;;;5078419;28;20210;-78
2021/12/23 08:01:45;;;;;;;24.67;16.13;;;-0.80;99.90;;;;;;5085098;28;20183;-78
2021/12/23 08:04:43;;;;;;;23.80;15.27;;;-0.60;99.90;;;;;;5078305;28;20182;-78
2021/12/23 08:07:09;;;;;;;25.77;15.37;;;-0.60;99.90;;;;;;5071509;28;20254;-78
2021/12/23 08:09:34;;;;;;;28.40;15.73;;;-0.60;99.90;;;;;;5077300;28;20280;-77
2021/12/23 08:12:00;;;;;;;26.47;16.53;;;-0.50;99.90;;;;;;5084248;28;20170;-78
2021/12/23 08:14:26;;;;;;;29.80;16.13;;;-0.50;99.90;;;;;;5088025;28;20206;-77
2021/12/23 08:16:52;;;;;;;24.47;15.70;;;-0.50;99.90;;;;;;5084132;28;20221;-78
2021/12/23 08:19:18;;;;;;;26.40;15.77;;;-0.50;99.90;;;;;;5084674;28;20224;-77
2021/12/23 08:21:43;;;;;;;23.97;14.97;;;-0.60;99.90;;;;;;5076020;28;20187;-77
2021/12/23 08:24:09;;;;;;;23.33;14.57;;;-0.50;99.90;;;;;;5076488;28;20178;-78
2021/12/23 08:26:40;;;;;;;24.57;14.90;;;-0.50;99.90;;;;;;5075619;28;20222;-77
2021/12/23 08:29:27;;;;;;;21.40;14.37;;;-0.50;99.90;;;;;;5076166;28;20208;-78
2021/12/23 08:31:53;;;;;;;24.73;15.70;;;-0.40;99.90;;;;;;5076448;28;20172;-77
2021/12/23 08:34:24;;;;;;;24.23;14.90;;;-0.20;99.90;;;;;;5077605;28;20520;-77
2021/12/23 08:37:10;;;;;;;20.87;14.00;;;-0.10;99.90;;;;;;5074441;28;20175;-77
2021/12/23 08:39:40;;;;;;;22.93;14.60;;;0.00;99.90;;;;;;5073347;28;20192;-77
2021/12/23 08:42:06;;;;;;;24.63;14.97;;;0.00;99.90;;;;;;5086751;28;20173;-77
2021/12/23 08:44:31;;;;;;;26.23;15.57;;;0.10;99.90;;;;;;5079640;28;20180;-77
2021/12/23 08:46:57;;;;;;;24.13;15.27;;;0.10;99.90;;;;;;5075641;28;20178;-77
2021/12/23 08:49:23;;;;;;;23.23;15.07;;;0.10;99.90;;;;;;5075262;28;20231;-77
2021/12/23 08:51:48;;;;;;;25.10;15.60;;;0.10;99.90;;;;;;5079995;28;20203;-78
2021/12/23 08:54:14;;;;;;;25.10;15.03;;;0.10;99.90;;;;;;5078143;28;20672;-78
2021/12/23 08:56:54;;;;;;;25.47;16.07;;;0.20;99.90;;;;;;5085725;28;20177;-76
2021/12/23 08:59:21;;;;;;;24.13;16.17;;;0.30;99.90;;;;;;5071313;28;20544;-77
2021/12/23 09:01:52;;;;;;;25.37;14.80;;;0.20;99.90;;;;;;5074682;28;20168;-77
2021/12/23 09:04:22;;;;;;;29.60;17.20;;;0.40;99.90;;;;;;5086035;28;20201;-77
2021/12/23 09:06:51;;;;;;;26.70;14.97;;;0.20;99.90;;;;;;5077858;28;20183;-78
2021/12/23 09:09:31;;;;;;;24.40;14.97;;;0.20;99.90;;;;;;5072246;28;20230;-77
2021/12/23 09:12:05;;;;;;;22.77;14.60;;;0.10;99.90;;;;;;5067151;28;20204;-77
2021/12/23 09:14:33;;;;;;;23.20;14.93;;;0.00;99.90;;;;;;5070354;28;20182;-78
2021/12/23 09:16:59;;;;;;;24.77;16.60;;;0.00;99.90;;;;;;5073955;28;20178;-77
2021/12/23 09:19:25;;;;;;;26.73;15.30;;;-0.10;99.90;;;;;;5080105;28;20199;-78
2021/12/23 09:21:50;;;;;;;25.33;16.17;;;0.00;99.90;;;;;;5087913;28;20224;-76
2021/12/23 09:24:18;;;;;;;27.53;15.70;;;0.10;99.90;;;;;;5081465;28;20202;-77
2021/12/23 09:26:51;;;;;;;23.70;14.87;;;0.20;99.90;;;;;;5074414;28;20180;-78
2021/12/23 09:34:50;;;;;;;24.63;15.90;;;0.20;99.90;;;;;;5086344;28;20229;-76
2021/12/23 09:37:17;;;;;;;23.33;15.47;;;0.50;99.90;;;;;;5079991;28;20179;-76
2021/12/23 09:39:44;;;;;;;25.00;15.00;;;0.40;99.90;;;;;;5078274;28;20287;-76
2021/12/23 09:42:11;;;;;;;26.03;15.00;;;0.20;99.90;;;;;;5073859;28;20226;-76
2021/12/23 09:44:37;;;;;;;24.77;14.57;;;0.20;99.90;;;;;;5074031;28;20267;-76
2021/12/23 09:47:03;;;;;;;22.77;14.43;;;0.20;99.90;;;;;;5074357;28;20187;-77
2021/12/23 09:49:30;;;;;;;25.27;15.37;;;0.30;99.90;;;;;;5074212;28;20231;-78
2021/12/23 09:51:57;;;;;;;23.73;15.57;;;0.20;99.90;;;;;;5078152;28;20182;-77
2021/12/23 09:54:25;;;;;;;24.90;15.23;;;0.40;99.90;;;;;;5088844;28;20173;-77
2021/12/23 09:57:03;;;;;;;24.03;15.70;;;0.50;99.90;;;;;;5081187;28;20181;-77
2021/12/23 09:59:30;;;;;;;23.33;15.47;;;0.50;99.90;;;;;;5078198;28;20279;-77
2021/12/23 10:01:56;;;;;;;23.73;15.37;;;0.30;99.90;;;;;;5074682;28;20176;-77
2021/12/23 10:04:21;;;;;;;23.17;15.17;;;0.30;99.90;;;;;;5076324;28;20180;-78
2021/12/23 10:06:51;;;;;;;27.03;15.20;;;0.40;99.90;;;;;;5087768;28;20209;-77
2021/12/23 10:09:36;;;;;;;21.83;15.80;;;0.20;99.90;;;;;;5090645;28;20227;-78
2021/12/23 10:30:09;;;;;;;23.10;14.50;;;0.00;99.90;;;;;;5098600;28;20427;-78
2021/12/23 10:37:19;;;;;;;23.33;15.80;;;0.10;99.90;;;;;;5107430;28;20182;-79
2021/12/23 10:40:01;;;;;;;26.10;15.33;;;0.00;99.90;;;;;;5091276;28;20218;-78
2021/12/23 10:42:29;;;;;;;24.90;15.53;;;0.00;99.90;;;;;;5106248;28;21030;-78
2021/12/23 10:44:58;;;;;;;23.77;14.83;;;0.10;99.90;;;;;;5096600;28;20187;-80
2021/12/23 10:47:59;;;;;;;24.50;15.90;;;0.20;99.90;;;;;;5083673;28;20188;-77
2021/12/23 10:50:38;;;;;;;24.60;15.60;;;0.20;99.90;;;;;;5083114;28;20650;-76
2021/12/23 10:53:10;;;;;;;24.17;15.93;;;0.20;99.90;;;;;;5079410;28;20200;-77
2021/12/23 10:58:21;;;;;;;24.60;16.67;;;0.20;99.90;;;;;;5094219;28;20218;-76
2021/12/23 11:00:53;;;;;;;24.67;16.50;;;0.30;99.90;;;;;;5078738;28;20172;-76
2021/12/23 11:03:38;;;;;;;25.83;16.57;;;0.30;99.90;;;;;;5074401;28;20169;-76
2021/12/23 11:06:19;;;;;;;24.47;16.03;;;0.50;99.90;;;;;;5083068;28;20172;-77
2021/12/23 11:08:57;;;;;;;24.03;15.97;;;0.40;99.90;;;;;;5083997;28;20212;-78
2021/12/23 11:29:10;;;;;;;23.03;14.77;;;0.90;99.90;;;;;;5094300;28;20206;-76
2021/12/23 11:32:06;;;;;;;22.70;15.53;;;1.00;99.90;;;;;;5091244;28;20535;-76
2021/12/23 11:39:50;;;;;;;26.73;16.13;;;1.20;99.90;;;;;;5114426;28;20195;-75
2021/12/23 11:42:37;;;;;;;25.10;15.60;;;1.10;99.90;;;;;;5105633;28;20198;-74
2021/12/23 11:45:04;;;;;;;24.50;15.40;;;1.20;99.90;;;;;;5107064;28;20231;-75
2021/12/23 11:47:30;;;;;;;23.03;15.27;;;1.20;99.90;;;;;;5099166;28;20168;-74
2021/12/23 11:49:56;;;;;;;19.13;13.60;;;1.10;99.90;;;;;;5098765;28;20219;-75
2021/12/23 11:52:23;;;;;;;24.63;15.90;;;1.20;99.90;;;;;;5107854;28;20155;-75
2021/12/23 11:54:49;;;;;;;24.30;15.43;;;1.40;99.90;;;;;;5099413;28;20187;-76
2021/12/23 11:57:21;;;;;;;24.53;15.90;;;1.40;99.90;;;;;;5098641;28;20168;-75
2021/12/23 12:00:21;;;;;;;21.87;15.20;;;1.30;99.90;;;;;;5097037;28;20186;-76
2021/12/23 12:02:43;;;;;;;23.20;15.30;;;1.40;99.90;;;;;;5112479;28;20180;-76
2021/12/23 12:05:17;;;;;;;22.77;14.97;;;1.40;99.90;;;;;;5101948;28;20175;-76
2021/12/23 12:07:44;;;;;;;24.30;14.90;;;1.40;99.90;;;;;;5078412;28;20200;-77
2021/12/23 12:10:19;;;;;;;24.10;15.17;;;1.60;99.90;;;;;;5077158;28;20199;-76
2021/12/23 12:12:58;;;;;;;21.60;14.57;;;1.50;99.90;;;;;;5073913;28;20982;-77
2021/12/23 12:15:39;;;;;;;21.83;15.00;;;1.60;99.90;;;;;;5074948;28;20172;-77
2021/12/23 12:18:13;;;;;;;25.97;15.47;;;1.60;99.90;;;;;;5094825;28;20187;-76
2021/12/23 12:20:48;;;;;;;22.13;14.73;;;1.50;99.90;;;;;;5076303;28;20589;-76
2021/12/23 12:23:19;;;;;;;22.03;14.87;;;1.50;99.90;;;;;;5081424;28;20168;-78
2021/12/23 12:25:48;;;;;;;23.63;14.80;;;1.30;99.90;;;;;;5101671;28;20658;-76
2021/12/23 12:28:24;;;;;;;21.40;14.87;;;1.30;99.90;;;;;;5091134;28;20249;-76
2021/12/23 12:31:02;;;;;;;25.83;14.43;;;1.30;99.90;;;;;;5095851;28;20176;-77
2021/12/23 12:33:33;;;;;;;22.13;14.93;;;1.40;99.90;;;;;;5078973;28;20172;-76
2021/12/23 12:36:02;;;;;;;22.57;15.87;;;1.30;99.90;;;;;;5079631;28;20179;-76
2021/12/23 12:38:31;;;;;;;23.93;15.90;;;1.30;99.90;;;;;;5073348;28;20200;-77
2021/12/23 12:41:05;;;;;;;22.83;15.30;;;1.30;99.90;;;;;;5075533;28;20187;-77
2021/12/23 12:43:42;;;;;;;24.03;15.93;;;1.40;99.90;;;;;;5076619;28;20286;-77
2021/12/23 12:46:10;;;;;;;24.93;15.00;;;1.40;99.90;;;;;;5088006;28;20168;-77
2021/12/23 12:48:55;;;;;;;23.70;15.27;;;1.40;99.90;;;;;;5066899;28;20226;-78
2021/12/23 12:51:33;;;;;;;22.67;15.73;;;1.40;99.90;;;;;;5071657;28;20172;-77
2021/12/23 12:54:06;;;;;;;26.03;17.17;;;1.40;99.90;;;;;;5058014;28;20168;-77
2021/12/23 12:56:42;;;;;;;25.17;15.23;;;1.50;99.90;;;;;;5082615;28;20176;-77
2021/12/23 12:59:22;;;;;;;27.77;16.10;;;1.40;99.90;;;;;;5074995;28;20196;-76
2021/12/23 13:01:51;;;;;;;22.17;15.20;;;1.40;99.90;;;;;;5075143;28;20535;-77
2021/12/23 13:04:36;;;;;;;22.97;15.83;;;1.30;99.90;;;;;;5077890;28;20180;-77
2021/12/23 13:07:26;;;;;;;21.67;15.23;;;1.30;99.90;;;;;;5076957;28;20171;-77
2021/12/23 13:10:20;;;;;;;25.93;16.10;;;1.30;99.90;;;;;;5092052;28;20217;-77
2021/12/23 13:13:10;;;;;;;28.07;17.00;;;1.20;99.90;;;;;;5085163;28;20256;-77
2021/12/23 13:16:10;;;;;;;25.00;16.10;;;1.10;99.90;;;;;;5094019;28;20539;-77
2021/12/23 13:18:36;;;;;;;30.57;18.60;;;0.90;99.90;;;;;;5085612;28;20203;-77
2021/12/23 13:21:05;;;;;;;28.43;18.70;;;0.80;99.90;;;;;;5077481;28;20203;-78
2021/12/23 13:23:43;;;;;;;28.83;18.47;;;0.80;99.90;;;;;;5088913;28;20168;-78
2021/12/23 13:26:16;;;;;;;27.33;19.03;;;0.70;99.90;;;;;;5090242;28;20485;-78
2021/12/23 13:28:43;;;;;;;28.37;19.00;;;0.70;99.90;;;;;;5063539;28;20215;-77
2021/12/23 13:31:21;;;;;;;29.23;19.40;;;0.70;99.90;;;;;;5077042;28;20164;-77
2021/12/23 13:33:57;;;;;;;29.33;19.70;;;0.70;99.90;;;;;;5077587;28;20186;-77
2021/12/23 13:36:44;;;;;;;30.97;20.30;;;0.70;99.90;;;;;;5099777;28;20184;-79
2021/12/23 13:39:22;;;;;;;33.50;19.80;;;0.60;99.90;;;;;;5093988;28;20230;-80